Few Clouds Current Weather (METAR) For London Heathrow Airport

All times on the weather descriptions are local

Observed at 13:50 - (14 mins ago)

Few Clouds

22°C

Few Clouds
Clouds: Few Clouds at 3,200ft
Wind: 230° at 12 knots, varying from 200° to 260
Visibility: Greater than 10km
QNH: 1011
Dew Point: 14°C
Runway in Use: Landing: Runway , Take-Off: Runway

Sunrise Today: 06:07
Sunset Today: 19:58

Forecast Weather (TAF) For London Heathrow Airport

Issued at 01:00 - (2 days 10 hrs ago)


Runway in Use: Likely Runways 27L/R

Forecast valid until 01:00 on Sunday

METAR/TAF RAW METAR / TAF

EGLL 281250Z 23012KT 200V260 9999 FEW032 22/14 Q1011

Weather Widget

Put weather from any of our airports on your website with our weather widget.

Find Another Search

Airport Search


Please Wait Please Wait - Loading
Close
Close

Login

Username:

Password:

Remember Me:

Remember me on this computer

Forgotten your password? Get a reset password sent to your registered e-mail address

Close

User Private Message

Subject:

Message: